sensor_id;sensor_type;location;lat;lon;timestamp;P1;durP1;ratioP1;P2;durP2;ratioP2
76259;SDS011;65076;52.362;6.588;2022-12-18T00:00:07;67.95;;;21.40;;
76259;SDS011;65076;52.362;6.588;2022-12-18T00:02:36;65.43;;;20.95;;
76259;SDS011;65076;52.362;6.588;2022-12-18T00:05:05;67.10;;;21.38;;
76259;SDS011;65076;52.362;6.588;2022-12-18T00:07:35;68.25;;;21.83;;
76259;SDS011;65076;52.362;6.588;2022-12-18T00:10:03;62.88;;;20.55;;
76259;SDS011;65076;52.362;6.588;2022-12-18T00:12:32;63.20;;;21.65;;
76259;SDS011;65076;52.362;6.588;2022-12-18T00:15:02;67.03;;;19.80;;
76259;SDS011;65076;52.362;6.588;2022-12-18T00:17:31;72.30;;;22.42;;
76259;SDS011;65076;52.362;6.588;2022-12-18T00:19:59;73.22;;;22.38;;
76259;SDS011;65076;52.362;6.588;2022-12-18T00:22:27;76.30;;;24.77;;
76259;SDS011;65076;52.362;6.588;2022-12-18T00:24:55;87.22;;;24.27;;
76259;SDS011;65076;52.362;6.588;2022-12-18T00:27:23;80.95;;;24.67;;
76259;SDS011;65076;52.362;6.588;2022-12-18T00:29:51;94.75;;;26.52;;
76259;SDS011;65076;52.362;6.588;2022-12-18T00:32:20;76.75;;;21.95;;
76259;SDS011;65076;52.362;6.588;2022-12-18T00:34:48;78.97;;;23.92;;
76259;SDS011;65076;52.362;6.588;2022-12-18T00:37:16;85.65;;;23.70;;
76259;SDS011;65076;52.362;6.588;2022-12-18T00:39:47;75.55;;;22.10;;
76259;SDS011;65076;52.362;6.588;2022-12-18T00:42:15;89.95;;;25.98;;
76259;SDS011;65076;52.362;6.588;2022-12-18T00:45:01;85.03;;;24.05;;
76259;SDS011;65076;52.362;6.588;2022-12-18T00:47:38;101.47;;;25.73;;
76259;SDS011;65076;52.362;6.588;2022-12-18T00:50:07;102.82;;;27.10;;
76259;SDS011;65076;52.362;6.588;2022-12-18T00:52:36;77.05;;;24.73;;
76259;SDS011;65076;52.362;6.588;2022-12-18T00:55:05;84.97;;;24.25;;
76259;SDS011;65076;52.362;6.588;2022-12-18T00:57:34;94.53;;;25.38;;
76259;SDS011;65076;52.362;6.588;2022-12-18T01:00:02;103.68;;;26.23;;
76259;SDS011;65076;52.362;6.588;2022-12-18T01:02:31;99.70;;;29.02;;
76259;SDS011;65076;52.362;6.588;2022-12-18T01:05:00;95.80;;;26.50;;
76259;SDS011;65076;52.362;6.588;2022-12-18T01:07:28;99.53;;;26.02;;
76259;SDS011;65076;52.362;6.588;2022-12-18T01:09:56;81.45;;;23.40;;
76259;SDS011;65076;52.362;6.588;2022-12-18T01:12:24;82.47;;;25.02;;
76259;SDS011;65076;52.362;6.588;2022-12-18T01:14:52;78.97;;;22.88;;
76259;SDS011;65076;52.362;6.588;2022-12-18T01:17:20;67.82;;;21.50;;
76259;SDS011;65076;52.362;6.588;2022-12-18T01:19:49;75.22;;;23.73;;
76259;SDS011;65076;52.362;6.588;2022-12-18T01:22:18;76.07;;;24.58;;
76259;SDS011;65076;52.362;6.588;2022-12-18T01:24:46;73.03;;;23.33;;
76259;SDS011;65076;52.362;6.588;2022-12-18T01:27:14;77.00;;;24.67;;
76259;SDS011;65076;52.362;6.588;2022-12-18T01:29:42;74.15;;;24.75;;
76259;SDS011;65076;52.362;6.588;2022-12-18T01:32:10;72.68;;;22.88;;
76259;SDS011;65076;52.362;6.588;2022-12-18T01:34:38;72.38;;;24.95;;
76259;SDS011;65076;52.362;6.588;2022-12-18T01:37:06;66.07;;;21.63;;
76259;SDS011;65076;52.362;6.588;2022-12-18T01:39:35;74.88;;;24.48;;
76259;SDS011;65076;52.362;6.588;2022-12-18T01:42:05;57.65;;;20.48;;
76259;SDS011;65076;52.362;6.588;2022-12-18T01:44:58;59.78;;;21.10;;
76259;SDS011;65076;52.362;6.588;2022-12-18T01:47:35;71.60;;;23.33;;
76259;SDS011;65076;52.362;6.588;2022-12-18T01:50:11;60.75;;;19.83;;
76259;SDS011;65076;52.362;6.588;2022-12-18T01:52:45;59.78;;;18.63;;
76259;SDS011;65076;52.362;6.588;2022-12-18T01:55:19;57.20;;;19.83;;
76259;SDS011;65076;52.362;6.588;2022-12-18T01:57:51;52.88;;;19.35;;
76259;SDS011;65076;52.362;6.588;2022-12-18T02:00:23;50.88;;;17.35;;
76259;SDS011;65076;52.362;6.588;2022-12-18T02:02:52;62.35;;;19.58;;
76259;SDS011;65076;52.362;6.588;2022-12-18T02:05:24;52.67;;;18.83;;
76259;SDS011;65076;52.362;6.588;2022-12-18T02:08:09;53.53;;;18.63;;
76259;SDS011;65076;52.362;6.588;2022-12-18T02:10:45;46.97;;;18.33;;
76259;SDS011;65076;52.362;6.588;2022-12-18T02:13:27;49.10;;;18.40;;
76259;SDS011;65076;52.362;6.588;2022-12-18T02:16:09;54.45;;;18.27;;
76259;SDS011;65076;52.362;6.588;2022-12-18T02:18:49;49.85;;;17.02;;
76259;SDS011;65076;52.362;6.588;2022-12-18T02:21:28;47.83;;;18.17;;
76259;SDS011;65076;52.362;6.588;2022-12-18T02:24:12;50.58;;;19.13;;
76259;SDS011;65076;52.362;6.588;2022-12-18T02:26:56;49.83;;;17.60;;
76259;SDS011;65076;52.362;6.588;2022-12-18T02:29:31;50.65;;;17.30;;
76259;SDS011;65076;52.362;6.588;2022-12-18T02:32:06;42.10;;;17.10;;
76259;SDS011;65076;52.362;6.588;2022-12-18T02:34:41;50.10;;;17.00;;
76259;SDS011;65076;52.362;6.588;2022-12-18T02:37:14;49.50;;;18.58;;
76259;SDS011;65076;52.362;6.588;2022-12-18T02:39:46;39.42;;;15.77;;
76259;SDS011;65076;52.362;6.588;2022-12-18T02:42:18;47.63;;;16.70;;
76259;SDS011;65076;52.362;6.588;2022-12-18T02:44:47;49.55;;;16.38;;
76259;SDS011;65076;52.362;6.588;2022-12-18T02:47:18;45.38;;;15.75;;
76259;SDS011;65076;52.362;6.588;2022-12-18T02:49:51;42.03;;;15.85;;
76259;SDS011;65076;52.362;6.588;2022-12-18T02:52:31;39.10;;;15.05;;
76259;SDS011;65076;52.362;6.588;2022-12-18T02:55:11;40.15;;;15.77;;
76259;SDS011;65076;52.362;6.588;2022-12-18T02:57:53;41.00;;;15.02;;
76259;SDS011;65076;52.362;6.588;2022-12-18T03:00:27;36.35;;;14.65;;
76259;SDS011;65076;52.362;6.588;2022-12-18T03:03:05;42.42;;;15.70;;
76259;SDS011;65076;52.362;6.588;2022-12-18T03:05:43;36.75;;;14.57;;
76259;SDS011;65076;52.362;6.588;2022-12-18T03:08:20;41.78;;;15.18;;
76259;SDS011;65076;52.362;6.588;2022-12-18T03:10:53;32.15;;;13.27;;
76259;SDS011;65076;52.362;6.588;2022-12-18T03:13:29;32.60;;;14.02;;
76259;SDS011;65076;52.362;6.588;2022-12-18T03:16:05;35.75;;;14.93;;
76259;SDS011;65076;52.362;6.588;2022-12-18T03:18:38;36.72;;;13.27;;
76259;SDS011;65076;52.362;6.588;2022-12-18T03:21:14;30.70;;;13.05;;
76259;SDS011;65076;52.362;6.588;2022-12-18T03:23:53;30.70;;;12.25;;
76259;SDS011;65076;52.362;6.588;2022-12-18T03:26:24;43.63;;;14.65;;
76259;SDS011;65076;52.362;6.588;2022-12-18T03:28:59;33.70;;;12.85;;
76259;SDS011;65076;52.362;6.588;2022-12-18T03:31:33;37.45;;;13.82;;
76259;SDS011;65076;52.362;6.588;2022-12-18T03:34:05;34.78;;;13.73;;
76259;SDS011;65076;52.362;6.588;2022-12-18T03:36:41;38.15;;;14.93;;
76259;SDS011;65076;52.362;6.588;2022-12-18T03:39:11;35.75;;;13.73;;
76259;SDS011;65076;52.362;6.588;2022-12-18T03:41:42;35.22;;;15.18;;
76259;SDS011;65076;52.362;6.588;2022-12-18T03:44:20;34.83;;;12.65;;
76259;SDS011;65076;52.362;6.588;2022-12-18T03:46:58;35.08;;;13.35;;
76259;SDS011;65076;52.362;6.588;2022-12-18T03:52:08;27.90;;;13.27;;
76259;SDS011;65076;52.362;6.588;2022-12-18T03:54:44;32.50;;;13.77;;
76259;SDS011;65076;52.362;6.588;2022-12-18T03:57:14;32.72;;;13.45;;
76259;SDS011;65076;52.362;6.588;2022-12-18T03:59:51;34.95;;;13.68;;
76259;SDS011;65076;52.362;6.588;2022-12-18T04:02:27;27.48;;;12.20;;
76259;SDS011;65076;52.362;6.588;2022-12-18T04:04:58;33.78;;;14.40;;
76259;SDS011;65076;52.362;6.588;2022-12-18T04:07:31;32.47;;;14.77;;
76259;SDS011;65076;52.362;6.588;2022-12-18T04:10:00;30.67;;;12.68;;
76259;SDS011;65076;52.362;6.588;2022-12-18T04:12:33;18.40;;;8.85;;
76259;SDS011;65076;52.362;6.588;2022-12-18T04:15:03;25.80;;;11.98;;
76259;SDS011;65076;52.362;6.588;2022-12-18T04:17:32;35.58;;;12.82;;
76259;SDS011;65076;52.362;6.588;2022-12-18T04:19:59;37.65;;;12.27;;
76259;SDS011;65076;52.362;6.588;2022-12-18T04:22:28;32.03;;;12.40;;
76259;SDS011;65076;52.362;6.588;2022-12-18T04:24:56;29.05;;;12.27;;
76259;SDS011;65076;52.362;6.588;2022-12-18T04:27:23;26.52;;;11.73;;
76259;SDS011;65076;52.362;6.588;2022-12-18T04:29:51;30.23;;;11.85;;
76259;SDS011;65076;52.362;6.588;2022-12-18T04:32:21;29.17;;;12.52;;
76259;SDS011;65076;52.362;6.588;2022-12-18T04:34:48;34.28;;;12.27;;
76259;SDS011;65076;52.362;6.588;2022-12-18T04:37:16;30.75;;;12.35;;
76259;SDS011;65076;52.362;6.588;2022-12-18T04:39:44;27.00;;;11.85;;
76259;SDS011;65076;52.362;6.588;2022-12-18T04:42:12;26.35;;;11.85;;
76259;SDS011;65076;52.362;6.588;2022-12-18T04:44:40;31.02;;;12.80;;
76259;SDS011;65076;52.362;6.588;2022-12-18T04:47:08;25.15;;;11.55;;
76259;SDS011;65076;52.362;6.588;2022-12-18T04:49:37;30.90;;;11.93;;
76259;SDS011;65076;52.362;6.588;2022-12-18T04:52:05;24.73;;;11.70;;
76259;SDS011;65076;52.362;6.588;2022-12-18T04:54:33;28.25;;;11.63;;
76259;SDS011;65076;52.362;6.588;2022-12-18T04:57:01;28.02;;;12.23;;
76259;SDS011;65076;52.362;6.588;2022-12-18T04:59:29;30.35;;;11.27;;
76259;SDS011;65076;52.362;6.588;2022-12-18T05:01:57;27.17;;;11.13;;
76259;SDS011;65076;52.362;6.588;2022-12-18T05:04:25;26.33;;;11.80;;
76259;SDS011;65076;52.362;6.588;2022-12-18T05:06:54;29.08;;;13.13;;
76259;SDS011;65076;52.362;6.588;2022-12-18T05:09:22;28.05;;;11.65;;
76259;SDS011;65076;52.362;6.588;2022-12-18T05:11:50;22.10;;;10.43;;
76259;SDS011;65076;52.362;6.588;2022-12-18T05:14:18;21.38;;;10.65;;
76259;SDS011;65076;52.362;6.588;2022-12-18T05:16:46;25.27;;;10.82;;
76259;SDS011;65076;52.362;6.588;2022-12-18T05:19:14;26.92;;;10.63;;
76259;SDS011;65076;52.362;6.588;2022-12-18T05:21:44;27.83;;;11.88;;
76259;SDS011;65076;52.362;6.588;2022-12-18T05:24:13;29.45;;;11.88;;
76259;SDS011;65076;52.362;6.588;2022-12-18T05:26:41;25.95;;;11.00;;
76259;SDS011;65076;52.362;6.588;2022-12-18T05:29:09;24.98;;;10.70;;
76259;SDS011;65076;52.362;6.588;2022-12-18T05:31:39;22.08;;;8.63;;
76259;SDS011;65076;52.362;6.588;2022-12-18T05:34:08;25.25;;;12.32;;
76259;SDS011;65076;52.362;6.588;2022-12-18T05:36:36;20.65;;;9.32;;
76259;SDS011;65076;52.362;6.588;2022-12-18T05:39:04;21.02;;;8.98;;
76259;SDS011;65076;52.362;6.588;2022-12-18T05:41:34;24.40;;;10.02;;
76259;SDS011;65076;52.362;6.588;2022-12-18T05:44:02;25.70;;;9.75;;
76259;SDS011;65076;52.362;6.588;2022-12-18T05:46:31;20.75;;;9.95;;
76259;SDS011;65076;52.362;6.588;2022-12-18T05:48:59;22.50;;;9.90;;
76259;SDS011;65076;52.362;6.588;2022-12-18T05:51:28;18.25;;;9.15;;
76259;SDS011;65076;52.362;6.588;2022-12-18T05:53:56;24.20;;;9.45;;
76259;SDS011;65076;52.362;6.588;2022-12-18T05:56:23;23.30;;;10.43;;
76259;SDS011;65076;52.362;6.588;2022-12-18T05:58:53;17.85;;;8.82;;
76259;SDS011;65076;52.362;6.588;2022-12-18T06:01:23;20.73;;;9.30;;
76259;SDS011;65076;52.362;6.588;2022-12-18T06:06:23;21.08;;;9.40;;
76259;SDS011;65076;52.362;6.588;2022-12-18T06:08:55;24.00;;;10.43;;
76259;SDS011;65076;52.362;6.588;2022-12-18T06:11:24;19.23;;;10.50;;
76259;SDS011;65076;52.362;6.588;2022-12-18T06:13:56;22.30;;;10.70;;
76259;SDS011;65076;52.362;6.588;2022-12-18T06:16:26;18.20;;;9.13;;
76259;SDS011;65076;52.362;6.588;2022-12-18T06:18:56;20.15;;;8.85;;
76259;SDS011;65076;52.362;6.588;2022-12-18T06:21:25;23.00;;;9.85;;
76259;SDS011;65076;52.362;6.588;2022-12-18T06:23:53;23.85;;;9.95;;
76259;SDS011;65076;52.362;6.588;2022-12-18T06:26:21;18.67;;;10.05;;
76259;SDS011;65076;52.362;6.588;2022-12-18T06:28:53;17.20;;;9.75;;
76259;SDS011;65076;52.362;6.588;2022-12-18T06:31:24;23.73;;;10.98;;
76259;SDS011;65076;52.362;6.588;2022-12-18T06:33:52;26.13;;;11.15;;
76259;SDS011;65076;52.362;6.588;2022-12-18T06:36:20;23.38;;;10.25;;
76259;SDS011;65076;52.362;6.588;2022-12-18T06:38:48;18.23;;;9.13;;
76259;SDS011;65076;52.362;6.588;2022-12-18T06:41:17;21.23;;;9.30;;
76259;SDS011;65076;52.362;6.588;2022-12-18T06:43:48;18.63;;;8.80;;
76259;SDS011;65076;52.362;6.588;2022-12-18T06:46:21;21.60;;;9.45;;
76259;SDS011;65076;52.362;6.588;2022-12-18T06:48:48;22.10;;;10.40;;
76259;SDS011;65076;52.362;6.588;2022-12-18T06:51:18;19.90;;;9.90;;
76259;SDS011;65076;52.362;6.588;2022-12-18T06:53:48;21.30;;;9.52;;
76259;SDS011;65076;52.362;6.588;2022-12-18T06:56:16;19.17;;;9.40;;
76259;SDS011;65076;52.362;6.588;2022-12-18T06:58:44;19.98;;;9.07;;
76259;SDS011;65076;52.362;6.588;2022-12-18T07:01:12;17.88;;;9.07;;
76259;SDS011;65076;52.362;6.588;2022-12-18T07:03:42;14.90;;;8.07;;
76259;SDS011;65076;52.362;6.588;2022-12-18T07:06:15;19.02;;;8.95;;
76259;SDS011;65076;52.362;6.588;2022-12-18T07:08:46;17.15;;;8.68;;
76259;SDS011;65076;52.362;6.588;2022-12-18T07:11:15;17.35;;;7.47;;
76259;SDS011;65076;52.362;6.588;2022-12-18T07:13:45;15.82;;;8.15;;
76259;SDS011;65076;52.362;6.588;2022-12-18T07:16:14;19.75;;;7.45;;
76259;SDS011;65076;52.362;6.588;2022-12-18T07:18:52;20.52;;;9.15;;
76259;SDS011;65076;52.362;6.588;2022-12-18T07:21:21;14.95;;;6.15;;
76259;SDS011;65076;52.362;6.588;2022-12-18T07:23:51;12.88;;;6.35;;
76259;SDS011;65076;52.362;6.588;2022-12-18T07:26:19;13.27;;;6.35;;
76259;SDS011;65076;52.362;6.588;2022-12-18T07:28:49;15.55;;;7.60;;
76259;SDS011;65076;52.362;6.588;2022-12-18T07:31:19;15.80;;;8.23;;
76259;SDS011;65076;52.362;6.588;2022-12-18T07:33:49;17.10;;;8.35;;
76259;SDS011;65076;52.362;6.588;2022-12-18T07:36:19;17.20;;;8.15;;
76259;SDS011;65076;52.362;6.588;2022-12-18T07:38:47;14.32;;;7.63;;
76259;SDS011;65076;52.362;6.588;2022-12-18T07:41:17;16.60;;;9.18;;
76259;SDS011;65076;52.362;6.588;2022-12-18T07:43:46;14.15;;;7.40;;
76259;SDS011;65076;52.362;6.588;2022-12-18T07:46:14;14.95;;;7.35;;
76259;SDS011;65076;52.362;6.588;2022-12-18T07:48:43;15.63;;;8.00;;
76259;SDS011;65076;52.362;6.588;2022-12-18T07:51:17;16.17;;;6.30;;
76259;SDS011;65076;52.362;6.588;2022-12-18T07:53:45;15.68;;;7.03;;
76259;SDS011;65076;52.362;6.588;2022-12-18T07:56:17;14.38;;;6.72;;
76259;SDS011;65076;52.362;6.588;2022-12-18T07:58:56;17.08;;;7.00;;
76259;SDS011;65076;52.362;6.588;2022-12-18T08:01:24;15.07;;;7.40;;
76259;SDS011;65076;52.362;6.588;2022-12-18T08:03:53;15.65;;;7.03;;
76259;SDS011;65076;52.362;6.588;2022-12-18T08:06:23;13.85;;;8.15;;
76259;SDS011;65076;52.362;6.588;2022-12-18T08:08:51;16.33;;;8.40;;
76259;SDS011;65076;52.362;6.588;2022-12-18T08:11:20;15.43;;;8.32;;
76259;SDS011;65076;52.362;6.588;2022-12-18T08:13:50;16.73;;;7.57;;
76259;SDS011;65076;52.362;6.588;2022-12-18T08:16:18;12.50;;;6.95;;
76259;SDS011;65076;52.362;6.588;2022-12-18T08:18:47;14.40;;;6.72;;
76259;SDS011;65076;52.362;6.588;2022-12-18T08:21:16;15.05;;;7.80;;
76259;SDS011;65076;52.362;6.588;2022-12-18T08:23:48;15.60;;;8.45;;
76259;SDS011;65076;52.362;6.588;2022-12-18T08:26:17;13.85;;;7.00;;
76259;SDS011;65076;52.362;6.588;2022-12-18T08:28:47;15.40;;;7.90;;
76259;SDS011;65076;52.362;6.588;2022-12-18T08:31:16;15.07;;;7.45;;
76259;SDS011;65076;52.362;6.588;2022-12-18T08:33:47;14.80;;;8.13;;
76259;SDS011;65076;52.362;6.588;2022-12-18T08:36:16;12.85;;;7.35;;
76259;SDS011;65076;52.362;6.588;2022-12-18T08:38:45;14.82;;;7.32;;
76259;SDS011;65076;52.362;6.588;2022-12-18T08:41:16;15.85;;;8.63;;
76259;SDS011;65076;52.362;6.588;2022-12-18T08:43:45;13.65;;;7.72;;
76259;SDS011;65076;52.362;6.588;2022-12-18T08:46:32;17.10;;;8.45;;
76259;SDS011;65076;52.362;6.588;2022-12-18T08:49:03;11.35;;;6.43;;
76259;SDS011;65076;52.362;6.588;2022-12-18T08:51:32;12.38;;;7.97;;
76259;SDS011;65076;52.362;6.588;2022-12-18T08:54:02;14.82;;;7.68;;
76259;SDS011;65076;52.362;6.588;2022-12-18T08:56:33;13.27;;;7.03;;
76259;SDS011;65076;52.362;6.588;2022-12-18T08:59:01;13.18;;;6.63;;
76259;SDS011;65076;52.362;6.588;2022-12-18T09:01:30;12.90;;;6.80;;
76259;SDS011;65076;52.362;6.588;2022-12-18T09:03:59;13.20;;;7.68;;
76259;SDS011;65076;52.362;6.588;2022-12-18T09:06:27;14.07;;;7.88;;
76259;SDS011;65076;52.362;6.588;2022-12-18T09:08:55;11.73;;;7.07;;
76259;SDS011;65076;52.362;6.588;2022-12-18T09:11:26;8.95;;;5.32;;
76259;SDS011;65076;52.362;6.588;2022-12-18T09:13:57;11.82;;;6.18;;
76259;SDS011;65076;52.362;6.588;2022-12-18T09:16:27;13.60;;;6.60;;
76259;SDS011;65076;52.362;6.588;2022-12-18T09:21:38;11.40;;;6.30;;
76259;SDS011;65076;52.362;6.588;2022-12-18T09:24:13;12.02;;;6.70;;
76259;SDS011;65076;52.362;6.588;2022-12-18T09:26:43;9.57;;;5.93;;
76259;SDS011;65076;52.362;6.588;2022-12-18T09:29:14;10.35;;;6.05;;
76259;SDS011;65076;52.362;6.588;2022-12-18T09:31:50;11.05;;;6.18;;
76259;SDS011;65076;52.362;6.588;2022-12-18T09:34:18;11.18;;;6.00;;
76259;SDS011;65076;52.362;6.588;2022-12-18T09:36:47;10.75;;;6.10;;
76259;SDS011;65076;52.362;6.588;2022-12-18T09:39:16;9.00;;;4.90;;
76259;SDS011;65076;52.362;6.588;2022-12-18T09:41:50;11.57;;;5.03;;
76259;SDS011;65076;52.362;6.588;2022-12-18T09:44:24;9.82;;;5.53;;
76259;SDS011;65076;52.362;6.588;2022-12-18T09:46:59;9.32;;;5.75;;
76259;SDS011;65076;52.362;6.588;2022-12-18T09:49:38;8.48;;;5.13;;
76259;SDS011;65076;52.362;6.588;2022-12-18T09:52:15;10.10;;;5.22;;
76259;SDS011;65076;52.362;6.588;2022-12-18T09:54:50;12.55;;;7.00;;
76259;SDS011;65076;52.362;6.588;2022-12-18T09:57:25;9.32;;;6.05;;
76259;SDS011;65076;52.362;6.588;2022-12-18T09:59:56;9.98;;;5.97;;
76259;SDS011;65076;52.362;6.588;2022-12-18T10:02:31;6.53;;;4.78;;
76259;SDS011;65076;52.362;6.588;2022-12-18T10:05:03;9.13;;;5.07;;
76259;SDS011;65076;52.362;6.588;2022-12-18T10:07:39;8.68;;;5.03;;
76259;SDS011;65076;52.362;6.588;2022-12-18T10:10:20;7.40;;;3.80;;
76259;SDS011;65076;52.362;6.588;2022-12-18T10:13:07;8.30;;;5.28;;
76259;SDS011;65076;52.362;6.588;2022-12-18T10:15:54;9.50;;;5.43;;
76259;SDS011;65076;52.362;6.588;2022-12-18T10:18:50;10.63;;;5.60;;
76259;SDS011;65076;52.362;6.588;2022-12-18T10:21:36;8.73;;;5.13;;
76259;SDS011;65076;52.362;6.588;2022-12-18T10:24:24;10.88;;;4.90;;
76259;SDS011;65076;52.362;6.588;2022-12-18T10:27:06;9.57;;;5.95;;
76259;SDS011;65076;52.362;6.588;2022-12-18T10:29:42;10.45;;;6.10;;
76259;SDS011;65076;52.362;6.588;2022-12-18T10:32:14;8.18;;;5.05;;
76259;SDS011;65076;52.362;6.588;2022-12-18T10:34:46;10.30;;;5.03;;
76259;SDS011;65076;52.362;6.588;2022-12-18T10:37:15;7.88;;;5.35;;
76259;SDS011;65076;52.362;6.588;2022-12-18T10:39:46;10.80;;;5.97;;
76259;SDS011;65076;52.362;6.588;2022-12-18T10:42:34;9.80;;;4.95;;
76259;SDS011;65076;52.362;6.588;2022-12-18T10:45:03;7.60;;;4.57;;
76259;SDS011;65076;52.362;6.588;2022-12-18T10:47:42;11.18;;;6.40;;
76259;SDS011;65076;52.362;6.588;2022-12-18T10:50:20;7.85;;;3.80;;
76259;SDS011;65076;52.362;6.588;2022-12-18T10:53:17;8.27;;;5.05;;
76259;SDS011;65076;52.362;6.588;2022-12-18T10:55:48;8.35;;;5.07;;
76259;SDS011;65076;52.362;6.588;2022-12-18T10:58:24;8.65;;;5.07;;
76259;SDS011;65076;52.362;6.588;2022-12-18T11:01:02;9.38;;;4.90;;
76259;SDS011;65076;52.362;6.588;2022-12-18T11:03:39;9.75;;;5.22;;
76259;SDS011;65076;52.362;6.588;2022-12-18T11:06:11;7.47;;;4.28;;
76259;SDS011;65076;52.362;6.588;2022-12-18T11:08:42;9.70;;;4.97;;
76259;SDS011;65076;52.362;6.588;2022-12-18T11:11:24;9.38;;;5.40;;
76259;SDS011;65076;52.362;6.588;2022-12-18T11:13:56;11.32;;;6.07;;
76259;SDS011;65076;52.362;6.588;2022-12-18T11:16:29;11.27;;;5.95;;
76259;SDS011;65076;52.362;6.588;2022-12-18T11:19:17;7.50;;;4.13;;
76259;SDS011;65076;52.362;6.588;2022-12-18T11:21:53;7.20;;;5.10;;
76259;SDS011;65076;52.362;6.588;2022-12-18T11:24:23;7.63;;;4.63;;
76259;SDS011;65076;52.362;6.588;2022-12-18T11:26:57;7.30;;;4.82;;
76259;SDS011;65076;52.362;6.588;2022-12-18T11:29:30;7.60;;;4.80;;
76259;SDS011;65076;52.362;6.588;2022-12-18T11:35:13;8.52;;;4.90;;
76259;SDS011;65076;52.362;6.588;2022-12-18T11:37:47;10.85;;;4.63;;
76259;SDS011;65076;52.362;6.588;2022-12-18T11:40:25;8.18;;;4.82;;
76259;SDS011;65076;52.362;6.588;2022-12-18T11:43:07;9.98;;;4.50;;
76259;SDS011;65076;52.362;6.588;2022-12-18T11:45:40;5.90;;;3.75;;
76259;SDS011;65076;52.362;6.588;2022-12-18T11:48:18;7.75;;;3.50;;
76259;SDS011;65076;52.362;6.588;2022-12-18T11:50:53;6.63;;;4.03;;
76259;SDS011;65076;52.362;6.588;2022-12-18T11:53:24;10.23;;;5.38;;
76259;SDS011;65076;52.362;6.588;2022-12-18T11:56:00;8.88;;;4.70;;
76259;SDS011;65076;52.362;6.588;2022-12-18T11:58:47;5.80;;;3.92;;
76259;SDS011;65076;52.362;6.588;2022-12-18T12:01:37;9.02;;;4.20;;
76259;SDS011;65076;52.362;6.588;2022-12-18T12:04:26;8.20;;;4.10;;
76259;SDS011;65076;52.362;6.588;2022-12-18T12:07:23;8.52;;;4.35;;
76259;SDS011;65076;52.362;6.588;2022-12-18T12:10:11;10.05;;;4.85;;
76259;SDS011;65076;52.362;6.588;2022-12-18T12:13:04;10.40;;;5.65;;
76259;SDS011;65076;52.362;6.588;2022-12-18T12:16:04;7.88;;;4.13;;
76259;SDS011;65076;52.362;6.588;2022-12-18T12:18:51;8.23;;;4.43;;
76259;SDS011;65076;52.362;6.588;2022-12-18T12:21:35;8.57;;;4.70;;
76259;SDS011;65076;52.362;6.588;2022-12-18T12:24:16;7.97;;;4.40;;
76259;SDS011;65076;52.362;6.588;2022-12-18T12:27:04;8.90;;;4.40;;
76259;SDS011;65076;52.362;6.588;2022-12-18T12:29:47;10.27;;;4.53;;
76259;SDS011;65076;52.362;6.588;2022-12-18T12:32:31;11.93;;;5.40;;
76259;SDS011;65076;52.362;6.588;2022-12-18T12:38:03;6.82;;;4.07;;
76259;SDS011;65076;52.362;6.588;2022-12-18T12:40:41;8.23;;;4.60;;
76259;SDS011;65076;52.362;6.588;2022-12-18T12:43:28;7.38;;;4.20;;
76259;SDS011;65076;52.362;6.588;2022-12-18T12:46:09;7.15;;;3.15;;
76259;SDS011;65076;52.362;6.588;2022-12-18T12:48:42;9.15;;;4.60;;
76259;SDS011;65076;52.362;6.588;2022-12-18T12:51:16;8.13;;;4.30;;
76259;SDS011;65076;52.362;6.588;2022-12-18T12:53:48;8.52;;;4.97;;
76259;SDS011;65076;52.362;6.588;2022-12-18T12:56:19;9.50;;;5.15;;
76259;SDS011;65076;52.362;6.588;2022-12-18T12:58:54;9.93;;;5.38;;
76259;SDS011;65076;52.362;6.588;2022-12-18T13:01:34;6.07;;;3.40;;
76259;SDS011;65076;52.362;6.588;2022-12-18T13:04:18;5.85;;;4.05;;
76259;SDS011;65076;52.362;6.588;2022-12-18T13:06:56;6.40;;;3.50;;
76259;SDS011;65076;52.362;6.588;2022-12-18T13:09:32;6.05;;;3.60;;
76259;SDS011;65076;52.362;6.588;2022-12-18T13:12:07;8.48;;;3.88;;
76259;SDS011;65076;52.362;6.588;2022-12-18T13:15:11;8.15;;;4.57;;
76259;SDS011;65076;52.362;6.588;2022-12-18T13:17:47;11.00;;;4.32;;
76259;SDS011;65076;52.362;6.588;2022-12-18T13:20:15;8.63;;;3.88;;
76259;SDS011;65076;52.362;6.588;2022-12-18T13:22:45;7.88;;;4.53;;
76259;SDS011;65076;52.362;6.588;2022-12-18T13:25:35;7.90;;;4.18;;
76259;SDS011;65076;52.362;6.588;2022-12-18T13:28:10;8.60;;;4.93;;
76259;SDS011;65076;52.362;6.588;2022-12-18T13:30:44;5.40;;;3.13;;
76259;SDS011;65076;52.362;6.588;2022-12-18T13:33:42;6.32;;;3.25;;
76259;SDS011;65076;52.362;6.588;2022-12-18T13:36:38;9.65;;;4.57;;
76259;SDS011;65076;52.362;6.588;2022-12-18T13:48:18;8.80;;;5.28;;
76259;SDS011;65076;52.362;6.588;2022-12-18T13:50:56;8.75;;;5.63;;
76259;SDS011;65076;52.362;6.588;2022-12-18T13:53:30;6.20;;;3.60;;
76259;SDS011;65076;52.362;6.588;2022-12-18T13:56:06;7.28;;;4.35;;
76259;SDS011;65076;52.362;6.588;2022-12-18T13:58:35;5.70;;;4.03;;
76259;SDS011;65076;52.362;6.588;2022-12-18T14:01:10;6.18;;;4.30;;
76259;SDS011;65076;52.362;6.588;2022-12-18T14:04:08;7.65;;;4.05;;
76259;SDS011;65076;52.362;6.588;2022-12-18T14:06:37;5.60;;;4.65;;
76259;SDS011;65076;52.362;6.588;2022-12-18T14:09:06;5.90;;;3.95;;
76259;SDS011;65076;52.362;6.588;2022-12-18T14:11:46;7.90;;;4.78;;
76259;SDS011;65076;52.362;6.588;2022-12-18T14:14:18;6.90;;;4.35;;
76259;SDS011;65076;52.362;6.588;2022-12-18T14:16:50;9.05;;;5.45;;
76259;SDS011;65076;52.362;6.588;2022-12-18T14:19:18;9.88;;;4.05;;
76259;SDS011;65076;52.362;6.588;2022-12-18T14:21:48;9.27;;;4.60;;
76259;SDS011;65076;52.362;6.588;2022-12-18T14:24:18;9.02;;;4.70;;
76259;SDS011;65076;52.362;6.588;2022-12-18T14:29:19;9.80;;;4.53;;
76259;SDS011;65076;52.362;6.588;2022-12-18T14:32:13;7.65;;;4.90;;
76259;SDS011;65076;52.362;6.588;2022-12-18T14:34:45;8.05;;;4.65;;
76259;SDS011;65076;52.362;6.588;2022-12-18T14:37:16;10.13;;;5.60;;
76259;SDS011;65076;52.362;6.588;2022-12-18T14:42:41;9.25;;;5.10;;
76259;SDS011;65076;52.362;6.588;2022-12-18T14:48:09;7.90;;;4.68;;
76259;SDS011;65076;52.362;6.588;2022-12-18T14:50:56;9.02;;;5.25;;
76259;SDS011;65076;52.362;6.588;2022-12-18T14:53:32;8.18;;;4.65;;
76259;SDS011;65076;52.362;6.588;2022-12-18T14:56:15;8.73;;;4.68;;
76259;SDS011;65076;52.362;6.588;2022-12-18T14:58:48;15.00;;;4.70;;
76259;SDS011;65076;52.362;6.588;2022-12-18T15:01:21;14.15;;;5.40;;
76259;SDS011;65076;52.362;6.588;2022-12-18T15:03:56;8.07;;;4.97;;
76259;SDS011;65076;52.362;6.588;2022-12-18T15:06:30;7.75;;;5.18;;
76259;SDS011;65076;52.362;6.588;2022-12-18T15:09:02;7.35;;;5.00;;
76259;SDS011;65076;52.362;6.588;2022-12-18T15:11:47;6.68;;;4.47;;
76259;SDS011;65076;52.362;6.588;2022-12-18T15:14:23;7.85;;;4.13;;
76259;SDS011;65076;52.362;6.588;2022-12-18T15:17:06;11.40;;;6.32;;
76259;SDS011;65076;52.362;6.588;2022-12-18T15:19:47;6.32;;;4.55;;
76259;SDS011;65076;52.362;6.588;2022-12-18T15:22:19;11.82;;;5.88;;
76259;SDS011;65076;52.362;6.588;2022-12-18T15:24:53;6.35;;;4.05;;
76259;SDS011;65076;52.362;6.588;2022-12-18T15:27:24;8.18;;;4.85;;
76259;SDS011;65076;52.362;6.588;2022-12-18T15:30:11;9.60;;;6.55;;
76259;SDS011;65076;52.362;6.588;2022-12-18T15:32:47;7.80;;;5.00;;
76259;SDS011;65076;52.362;6.588;2022-12-18T15:35:19;8.73;;;5.60;;
76259;SDS011;65076;52.362;6.588;2022-12-18T15:37:49;8.18;;;4.72;;
76259;SDS011;65076;52.362;6.588;2022-12-18T15:40:19;8.93;;;5.18;;